createdAt,value
2023-04-10T00:03:20.218Z,19.19
2023-04-10T00:08:23.686Z,19.18
2023-04-10T00:13:25.681Z,19.15
2023-04-10T00:18:27.708Z,19.14
2023-04-10T00:23:32.205Z,19.19
2023-04-10T00:28:34.176Z,19.18
2023-04-10T00:33:36.200Z,19.15
2023-04-10T00:38:38.403Z,19.16
2023-04-10T00:43:40.403Z,19.15
2023-04-10T00:48:42.502Z,19.15
2023-04-10T00:53:44.444Z,19.19
2023-04-10T00:58:46.550Z,19.19
2023-04-10T01:03:49.233Z,19.18
2023-04-10T01:09:05.752Z,19.10
2023-04-10T01:14:28.156Z,19.15
2023-04-10T01:20:04.531Z,19.17
2023-04-10T01:25:39.810Z,19.15
2023-04-10T01:30:42.713Z,19.14
2023-04-10T01:35:50.906Z,19.13
2023-04-10T01:40:54.970Z,19.17
2023-04-10T01:45:59.041Z,19.17
2023-04-10T01:51:05.796Z,19.18
2023-04-10T01:56:09.407Z,19.16
2023-04-10T02:01:22.432Z,19.17
2023-04-10T02:06:51.904Z,19.16
2023-04-10T02:12:04.970Z,19.15
2023-04-10T02:17:08.715Z,19.16
2023-04-10T02:22:10.593Z,19.15
2023-04-10T02:27:12.591Z,19.17
2023-04-10T02:32:14.717Z,19.18
2023-04-10T02:37:17.248Z,19.16
2023-04-10T02:42:19.187Z,19.19
2023-04-10T02:47:21.239Z,19.18
2023-04-10T02:52:23.575Z,19.16
2023-04-10T02:57:26.551Z,19.12
2023-04-10T03:02:28.798Z,19.15
2023-04-10T03:07:32.495Z,19.17
2023-04-10T03:12:34.648Z,19.11
2023-04-10T03:17:36.559Z,19.15
2023-04-10T03:22:38.530Z,19.12
2023-04-10T03:27:40.617Z,19.12
2023-04-10T03:32:43.477Z,19.14
2023-04-10T03:37:45.833Z,19.16
2023-04-10T03:42:47.674Z,19.12
2023-04-10T03:47:49.812Z,19.12
2023-04-10T03:52:52.304Z,19.11
2023-04-10T03:57:54.060Z,19.14
2023-04-10T04:02:56.365Z,19.15
2023-04-10T04:07:58.460Z,19.13
2023-04-10T04:13:00.463Z,19.11
2023-04-10T04:18:02.489Z,19.11
2023-04-10T04:23:04.446Z,19.09
2023-04-10T04:28:06.663Z,19.06
2023-04-10T04:33:08.900Z,19.10
2023-04-10T04:38:11.010Z,19.15
2023-04-10T04:43:13.159Z,19.11
2023-04-10T04:48:15.302Z,19.11
2023-04-10T04:53:17.384Z,19.11
2023-04-10T04:58:20.931Z,19.16
2023-04-10T05:03:23.157Z,19.11
2023-04-10T05:08:25.820Z,19.13
2023-04-10T05:13:27.791Z,19.11
2023-04-10T05:18:29.667Z,19.14
2023-04-10T05:23:31.820Z,19.08
2023-04-10T05:28:33.733Z,19.11
2023-04-10T05:33:35.934Z,19.11
2023-04-10T05:38:37.984Z,19.08
2023-04-10T05:43:40.146Z,19.12
2023-04-10T05:48:42.085Z,19.14
2023-04-10T05:53:44.126Z,19.14
2023-04-10T05:58:46.366Z,19.09
2023-04-10T06:03:48.410Z,19.10
2023-04-10T06:08:50.422Z,19.12
2023-04-10T06:13:52.557Z,19.07
2023-04-10T06:18:54.980Z,19.06
2023-04-10T06:23:57.007Z,19.07
2023-04-10T06:29:00.976Z,19.06
2023-04-10T06:34:03.858Z,19.05
2023-04-10T06:39:07.059Z,19.06
2023-04-10T06:44:08.995Z,19.06
2023-04-10T06:49:10.967Z,19.06
2023-04-10T06:54:12.940Z,19.05
2023-04-10T06:59:14.811Z,19.12
2023-04-10T07:04:16.941Z,19.04
2023-04-10T07:09:18.954Z,19.05
2023-04-10T07:14:21.323Z,19.02
2023-04-10T07:19:23.197Z,19.09
2023-04-10T07:24:25.174Z,19.21
2023-04-10T07:29:27.477Z,19.25
2023-04-10T07:34:31.131Z,19.34
2023-04-10T07:39:33.135Z,19.25
2023-04-10T07:44:34.930Z,19.26
2023-04-10T07:49:37.102Z,19.25
2023-04-10T07:54:39.078Z,19.34
2023-04-10T07:59:41.382Z,19.32
2023-04-10T08:04:43.408Z,19.32
2023-04-10T08:09:45.392Z,19.31
2023-04-10T08:14:47.450Z,19.31
2023-04-10T08:19:49.604Z,19.39
2023-04-10T08:24:52.015Z,19.25
2023-04-10T08:29:54.152Z,19.44
2023-04-10T08:34:56.208Z,19.52
2023-04-10T08:39:59.151Z,19.52
2023-04-10T08:45:01.023Z,19.54
2023-04-10T08:50:11.257Z,19.56
2023-04-10T08:55:14.398Z,19.53
2023-04-10T09:05:38.502Z,19.47
2023-04-10T09:10:40.387Z,19.49
2023-04-10T09:15:59.899Z,19.46
2023-04-10T09:21:12.680Z,19.50
2023-04-10T09:26:29.630Z,19.47
2023-04-10T09:31:36.968Z,19.49
2023-04-10T09:36:41.470Z,19.50
2023-04-10T09:41:55.670Z,19.48
2023-04-10T09:46:59.234Z,19.50
2023-04-10T09:52:17.600Z,19.57
2023-04-10T09:57:21.197Z,19.52
2023-04-10T10:02:24.983Z,19.53
2023-04-10T10:07:28.020Z,19.48
2023-04-10T10:12:38.325Z,19.45
2023-04-10T10:17:51.043Z,19.45
2023-04-10T10:22:53.865Z,19.48
2023-04-10T10:27:56.630Z,19.50
2023-04-10T10:33:00.463Z,19.47
2023-04-10T10:38:04.506Z,19.47
2023-04-10T10:43:25.037Z,19.46
2023-04-10T10:48:27.999Z,19.49
2023-04-10T10:53:45.611Z,19.47
2023-04-10T10:58:48.537Z,19.52
2023-04-10T11:03:51.201Z,19.49
2023-04-10T11:08:53.882Z,19.50
2023-04-10T11:13:59.031Z,19.51
2023-04-10T11:19:13.065Z,19.51
2023-04-10T11:24:16.948Z,19.53
2023-04-10T11:29:27.852Z,19.54
2023-04-10T11:34:33.539Z,19.57
2023-04-10T11:39:35.660Z,19.55
2023-04-10T11:44:39.871Z,19.52
2023-04-10T11:49:42.385Z,19.56
2023-04-10T11:54:49.412Z,19.56
2023-04-10T11:59:52.107Z,19.62
2023-04-10T12:05:00.653Z,19.58
2023-04-10T12:10:07.551Z,19.56
2023-04-10T12:15:29.128Z,19.56
2023-04-10T12:20:31.310Z,19.55
2023-04-10T12:25:34.246Z,19.56
2023-04-10T12:30:36.496Z,19.56
2023-04-10T12:35:45.088Z,19.59
2023-04-10T12:41:08.222Z,19.54
2023-04-10T12:46:11.582Z,19.56
2023-04-10T12:51:13.716Z,19.59
2023-04-10T12:56:18.412Z,19.59
2023-04-10T13:01:20.330Z,19.53
2023-04-10T13:06:22.432Z,19.59
2023-04-10T13:11:24.479Z,19.58
2023-04-10T13:16:26.742Z,19.57
2023-04-10T13:21:29.081Z,19.56
2023-04-10T13:26:31.399Z,19.60
2023-04-10T13:31:33.510Z,19.61
2023-04-10T13:36:35.578Z,19.63
2023-04-10T13:41:37.603Z,19.18
2023-04-10T13:46:39.698Z,19.44
2023-04-10T13:51:41.810Z,19.55
2023-04-10T13:56:44.856Z,19.64
2023-04-10T14:01:47.953Z,19.61
2023-04-10T14:06:52.301Z,19.63
2023-04-10T14:11:54.669Z,19.59
2023-04-10T14:16:56.911Z,19.58
2023-04-10T14:21:58.922Z,19.39
2023-04-10T14:27:02.244Z,19.51
2023-04-10T14:32:04.642Z,19.55
2023-04-10T14:37:07.675Z,19.61
2023-04-10T14:42:11.007Z,19.56
2023-04-10T14:47:12.855Z,19.57
2023-04-10T14:52:15.007Z,19.54
2023-04-10T14:57:17.850Z,19.56
2023-04-10T15:02:19.822Z,19.59
2023-04-10T15:07:21.968Z,19.54
2023-04-10T15:12:25.239Z,19.57
2023-04-10T15:17:27.194Z,19.60
2023-04-10T15:22:29.647Z,19.64
2023-04-10T15:27:31.893Z,19.60
2023-04-10T15:32:33.992Z,19.55
2023-04-10T15:37:37.068Z,19.53
2023-04-10T15:42:38.908Z,19.54
2023-04-10T15:47:40.940Z,19.52
2023-04-10T15:52:42.839Z,19.54
2023-04-10T15:57:44.859Z,19.53
2023-04-10T16:02:46.994Z,19.57
2023-04-10T16:07:49.137Z,19.52
2023-04-10T16:12:50.975Z,19.54
2023-04-10T16:17:52.973Z,19.54
2023-04-10T16:22:55.098Z,19.53
2023-04-10T16:27:57.276Z,19.53
2023-04-10T16:32:59.185Z,19.54
2023-04-10T16:38:01.061Z,19.59
2023-04-10T16:43:03.231Z,19.57
2023-04-10T16:48:05.350Z,19.59
2023-04-10T16:53:07.383Z,19.60
2023-04-10T16:58:09.346Z,19.58
2023-04-10T17:03:11.454Z,19.43
2023-04-10T17:08:13.524Z,19.37
2023-04-10T17:13:15.799Z,19.23
2023-04-10T17:18:20.403Z,19.14
2023-04-10T17:23:22.754Z,19.17
2023-04-10T17:28:24.745Z,19.25
2023-04-10T17:33:26.806Z,19.27
2023-04-10T17:38:28.952Z,19.46
2023-04-10T17:43:31.158Z,19.54
2023-04-10T17:48:34.754Z,19.68
2023-04-10T17:53:37.624Z,19.62
2023-04-10T17:58:39.526Z,19.68
2023-04-10T18:03:41.737Z,19.65
2023-04-10T18:08:43.982Z,19.67
2023-04-10T18:13:47.263Z,19.64
2023-04-10T18:18:49.203Z,19.60
2023-04-10T18:23:51.289Z,19.59
2023-04-10T18:28:53.789Z,19.58
2023-04-10T18:34:06.501Z,19.57
2023-04-10T18:39:09.652Z,19.57
2023-04-10T18:44:12.267Z,19.57
2023-04-10T18:49:14.283Z,19.53
2023-04-10T18:54:16.103Z,19.53
2023-04-10T18:59:18.024Z,19.49
2023-04-10T19:04:20.022Z,19.53
2023-04-10T19:09:22.091Z,19.55
2023-04-10T19:14:24.458Z,19.50
2023-04-10T19:19:26.685Z,19.50
2023-04-10T19:24:29.427Z,19.51
2023-04-10T19:29:31.604Z,19.52
2023-04-10T19:34:33.692Z,19.51
2023-04-10T19:39:35.779Z,19.48
2023-04-10T19:44:37.976Z,19.48
2023-04-10T19:49:40.162Z,19.51
2023-04-10T19:54:42.209Z,19.47
2023-04-10T19:59:44.623Z,19.49
2023-04-10T20:04:48.585Z,19.53
2023-04-10T20:09:51.124Z,19.50
2023-04-10T20:14:53.342Z,19.64
2023-04-10T20:19:55.925Z,19.66
2023-04-10T20:24:58.274Z,19.60
2023-04-10T20:30:00.514Z,19.59
2023-04-10T20:35:02.661Z,19.56
2023-04-10T20:40:06.287Z,19.59
2023-04-10T20:45:08.845Z,19.54
2023-04-10T20:50:12.905Z,19.52
2023-04-10T20:55:15.297Z,19.50
2023-04-10T21:00:17.454Z,19.45
2023-04-10T21:05:19.508Z,19.47
2023-04-10T21:10:21.597Z,19.48
2023-04-10T21:15:23.575Z,19.49
2023-04-10T21:20:25.593Z,19.48
2023-04-10T21:25:27.583Z,19.51
2023-04-10T21:30:29.726Z,19.58
2023-04-10T21:35:31.692Z,19.61
2023-04-10T21:40:34.741Z,19.59
2023-04-10T21:45:37.874Z,19.56
2023-04-10T21:50:40.599Z,19.50
2023-04-10T21:55:42.465Z,19.47
2023-04-10T22:00:47.515Z,19.53
2023-04-10T22:05:50.914Z,19.53
2023-04-10T22:10:52.925Z,19.49
2023-04-10T22:15:54.989Z,19.49
2023-04-10T22:20:56.894Z,19.53
2023-04-10T22:26:01.172Z,19.52
2023-04-10T22:31:03.316Z,19.49
2023-04-10T22:36:05.647Z,19.52
2023-04-10T22:41:07.912Z,19.50
2023-04-10T22:46:09.884Z,19.48
2023-04-10T22:51:12.681Z,19.53
2023-04-10T22:56:15.068Z,19.51
2023-04-10T23:01:17.109Z,19.49
2023-04-10T23:06:19.105Z,19.50
2023-04-10T23:11:22.121Z,19.49
2023-04-10T23:16:24.130Z,19.50
2023-04-10T23:21:27.511Z,19.51
2023-04-10T23:26:33.046Z,19.48
2023-04-10T23:31:35.138Z,19.50
2023-04-10T23:36:37.334Z,19.47
2023-04-10T23:41:39.352Z,19.49
2023-04-10T23:46:41.636Z,19.51
2023-04-10T23:51:45.419Z,19.48
2023-04-10T23:56:47.502Z,19.49
